Create Custom Reports and Graphics: Custom Report

Winters (Shannon)

Current Conditions

11/28/22 4:30 AM (-08:00)
Updated Every 15 Minutes
Temp 44.4 °F   21.5
WindChill 40.4 °F
Daily Min Temp 42.8 °F   20.2
Time of Min Temp 0219
Daily Max Temp 47.4 °F   18.6
Time of Max Temp 0004
Wind Spd 7.0 mph   7.0
Wind Dir W | 274 °
Wind Gust 11.3 mph   11.3
Daily Max Wind 16.4 mph   14.2
Time of Max Wind 0324
Max Wind Dir WNW | 297 °
RH 76 %   17
Dew Pt 37.2 °F   16.2
Solar Rad 0 W/m2   0
Daily Rain 0.00 In
Daily ETo 0.003 in   0.003
Yest MinT 21.5 °F
Yest MaxT 63.8 °F
Yest MaxGst 14.3 mph
Yest ETo 0.06 In
Yest Precip 0.00 In
Month Precip 1.82 In
Season Precip 4.57 In
BatVolt 12.9 V   0.1
MinBV Day 12.9 V   0.1

Last 365 Observations

Winters (Shannon)

Daily Data | America/Los_Angeles
as of 11/28/22 4:38 AM PST
Date Daily Max Temp (°F) Time of Max Temp Daily Min Temp (°F) Time of Min Temp Daily Rain (In) Month Precip (In) Season Precip (In) Daily ETo (in) Daily Solar Rad (Cal/cm2) Daily Max Wind (mph) Time of Max Wind Max Wind Dir (°) Dew Pt (°F) Max RH (%) Min RH (%) Hrs <= 32F (hrs) Hrs <= 28F (hrs) Powdery Mildew Stress (pts) Hrs 70-85F (hrs) Hrs > 95F (hrs) Storm Total (In) Max 1 Min Rain (In) Max 1 Min Rain Time Max 15 Min Rain (In) Max 15 Min Precip Time Max 60 Min Rain (In) Max 60 Min Rain Time MinBV Day (V)
11/27/22 63.8 1406 21.5 0645 0.00 1.82 4.57 0.059 234 14.3 2301 WSW | 254 27.7 96 25 8.1 7.8 - 0.00 0.00 - - - - - - - 12.8
11/26/22 64.2 1407 26.1 2359 0.00 1.82 4.57 0.070 237 14.6 1137 E | 84 27.2 94 22 5.9 2.7 - 0.00 0.00 - - - - - - - 12.9
11/25/22 67.3 1403 26.0 0556 0.00 1.82 4.57 0.064 230 14.2 1149 E | 101 22.8 84 12 7.5 2.9 - 0.00 0.00 - - - - - - - 12.8
11/24/22 70.7 1448 29.5 0247 0.00 1.82 4.57 0.091 247 16.5 1037 E | 95 16.2 69 8 1.8 0.0 - 0.44 0.00 - - - - - - - 12.8
11/23/22 69.9 1420 26.1 0717 0.00 1.82 4.57 0.057 245 7.5 2302 SE | 133 27.6 98 12 7.6 3.6 - 0.00 0.00 - - - - - - - 12.8
11/22/22 65.6 1421 22.9 0633 0.00 1.82 4.57 0.058 211 13.2 1501 W | 270 30.4 95 28 7.9 7.7 - 0.00 0.00 - - - - - - - 12.8
11/21/22 63.6 1410 18.1 0445 0.00 1.82 4.57 0.055 247 5.8 1506 NW | 309 20.0 92 12 13.1 11.3 - 0.00 0.00 - - - - - - - 12.7
11/20/22 61.7 1448 15.8 0704 0.00 1.82 4.57 0.058 260 9.2 1243 E | 101 18.7 92 16 14.5 13.0 - 0.00 0.00 - - - - - - - 12.7
11/19/22 61.4 1436 19.2 2359 0.00 1.82 4.57 0.064 266 10.3 1030 E | 89 14.8 89 12 12.8 11.4 - 0.00 0.00 - - - - - - - 12.8
11/18/22 62.9 1336 25.5 0630 0.00 1.82 4.57 0.074 268 13.4 1326 E | 101 20.6 96 11 7.2 2.4 - 0.00 0.00 - - - - - - - 12.8
11/17/22 63.6 1450 22.0 0342 0.00 1.82 4.57 0.067 262 14.4 1352 W | 266 24.3 92 18 12.0 8.7 - 0.00 0.00 - - - - - - - 12.8
11/16/22 67.8 1412 20.6 0545 0.00 1.82 4.57 0.068 273 9.5 1132 ESE | 104 19.2 92 8 12.7 8.3 - 0.00 0.00 - - - - - - - 12.8
11/15/22 63.3 1355 22.0 0054 0.00 1.82 4.57 0.075 275 18.2 1142 E | 97 20.6 97 14 8.8 7.5 - 0.00 0.00 - - - - - - - 12.8
11/14/22 55.2 1218 21.4 0221 0.00 1.82 4.57 0.064 273 14.0 1244 E | 101 24.1 96 30 14.3 12.4 - 0.00 0.00 - - - - - - - 12.7
11/13/22 57.7 1441 22.6 2246 0.00 1.82 4.57 0.060 282 10.1 1321 E | 100 25.1 98 21 14.4 12.7 - 0.00 0.00 - - - - - - - 12.8
11/12/22 53.3 1319 26.7 2355 0.01 1.82 4.57 0.061 273 15.7 1310 NW | 320 33.8 98 32 3.0 1.2 - 0.00 0.00 - 0.01 0120 0.01 0134 0.01 0219 12.8
11/11/22 56.1 1453 23.9 0539 0.00 1.81 4.56 0.054 259 6.2 1251 N | 349 29.5 97 38 11.4 7.6 - 0.00 0.00 - - - - - - - 12.8
11/10/22 56.2 1504 22.6 0405 0.00 1.81 4.56 0.055 278 7.6 1354 W | 268 29.2 99 29 12.0 8.4 - 0.00 0.00 - - - - - - - 12.8
11/9/22 52.6 1441 25.8 2357 0.00 1.81 4.56 0.060 299 13.4 1252 NW | 316 34.0 96 44 3.5 1.7 - 0.00 0.00 - - - - - - - 12.8
11/8/22 43.6 1422 34.5 1835 0.75 1.81 4.56 0.018 82 14.2 0444 SE | 131 36.9 98 81 0.0 0.0 - 0.00 0.00 1.56 0.01 1712 0.08 0056 0.20 0134 12.8
11/7/22 48.1 1128 28.8 0607 0.33 1.06 3.81 0.029 153 11.8 0248 NW | 318 34.9 98 58 2.5 0.0 - 0.00 0.00 0.81 0.01 2304 0.05 2201 0.09 2238 12.8
11/6/22 54.2 1400 35.6 0413 0.48 0.73 3.48 0.062 265 24.0 2201 SE | 126 38.2 99 43 0.0 0.0 - 0.00 0.00 0.48 0.01 2356 0.09 2234 0.27 2249 12.8
11/5/22 60.6 1318 47.4 0059 0.00 0.25 3.00 0.040 141 12.9 1201 NW | 321 47.6 92 67 0.0 0.0 - 0.00 0.00 - - - - - - - 12.9
11/4/22 61.5 1328 28.1 0112 0.00 0.25 3.00 0.062 230 13.4 1515 WNW | 293 40.7 97 38 0.5 0.0 - 0.00 0.00 - - - - - - - 12.9
11/3/22 55.9 1613 20.6 0741 0.00 0.25 3.00 0.065 309 6.7 0102 WSW | 251 24.8 95 21 12.0 5.6 - 0.00 0.00 - - - - - - - 12.8
11/2/22 50.7 1412 26.2 0213 0.00 0.25 3.00 0.052 224 13.8 2307 WSW | 256 31.1 98 47 7.6 3.4 - 0.00 0.00 - - - - - - - 12.8
11/1/22 51.0 0929 30.0 0059 0.25 0.25 3.00 0.041 174 21.1 1418 NW | 309 38.8 100 53 0.2 0.0 - 0.00 0.00 0.25 0.02 0956 0.10 1006 0.20 1047 12.9
10/31/22 70.3 1520 31.5 0151 0.00 0.00 2.75 0.081 260 12.6 1540 ESE | 112 33.2 95 22 1.0 0.0 0 0.07 0.00 - - - - - - - 12.8
10/30/22 75.1 1527 28.8 0711 0.00 0.00 2.75 0.086 315 8.8 1538 NW | 321 32.5 97 17 3.3 0.0 0 5.11 0.00 - - - - - - - 12.8
10/29/22 70.7 1412 26.8 0451 0.00 0.00 2.75 0.089 298 13.2 1448 NW | 319 32.4 94 19 7.3 4.3 0 0.13 0.00 - - - - - - - 12.8
10/28/22 66.3 1535 27.3 0710 0.00 0.00 2.75 0.067 245 10.3 1836 W | 266 27.9 94 20 8.0 1.1 0 0.00 0.00 - - - - - - - 12.8
10/27/22 69.2 1633 25.5 0707 0.00 0.00 2.75 0.084 328 10.8 1324 ENE | 75 25.9 94 15 9.7 4.5 0 0.00 0.00 - - - - - - - 12.8
10/26/22 63.9 1510 29.7 0057 0.00 0.00 2.75 0.087 324 20.2 0114 WSW | 252 31.7 91 19 0.7 0.0 0 0.00 0.00 - - - - - - - 12.9
10/25/22 68.8 1633 37.6 0740 0.00 0.00 2.75 0.092 323 22.4 0024 W | 270 36.9 95 23 0.0 0.0 0 0.00 0.00 - - - - - - - 12.9
10/24/22 72.2 1515 27.5 0642 0.00 0.00 2.75 0.101 333 16.0 1502 N | 353 35.0 92 16 7.1 0.4 0 2.55 0.00 - - - - - - - 12.8
10/23/22 63.5 1610 29.7 0058 0.00 0.00 2.75 0.093 352 15.5 1334 ENE | 74 25.5 90 13 0.7 0.0 0 0.00 0.00 - - - - - - - 12.9
10/22/22 63.7 1529 45.0 0057 0.00 0.00 2.75 0.113 302 21.3 1619 W | 268 36.8 90 19 0.0 0.0 10 0.00 0.00 - - - - - - - 12.9
10/21/22 83.7 1433 36.9 0742 0.00 0.00 2.75 0.116 320 20.8 2329 WNW | 284 40.2 94 12 0.0 0.0 20 8.10 0.00 - - - - - - - 12.8
10/20/22 88.5 1539 37.0 0718 0.00 0.00 2.75 0.107 352 10.1 1143 E | 88 34.0 90 8 0.0 0.0 0 3.57 0.00 - - - - - - - 12.8
10/19/22 89.0 1535 35.1 0730 0.00 0.00 2.75 0.110 353 8.0 1608 W | 268 33.8 96 6 0.0 0.0 0 2.54 0.00 - - - - - - - 12.9
10/18/22 83.2 1558 39.5 0736 0.00 0.00 2.75 0.091 310 10.4 1520 E | 94 41.6 98 13 0.0 0.0 0 5.60 0.00 - - - - - - - 12.9
10/17/22 73.9 1633 35.5 0727 0.00 0.00 2.75 0.090 330 11.9 1221 E | 98 44.3 98 35 0.0 0.0 0 4.00 0.00 - - - - - - - 12.9
10/16/22 70.1 1550 35.1 0352 0.00 0.00 2.75 0.093 359 11.7 1722 W | 271 43.6 98 49 0.0 0.0 0 0.02 0.00 - - - - - - - 12.8
10/15/22 86.2 1426 38.8 0703 0.00 0.00 2.75 0.123 372 9.9 1208 ESE | 107 42.1 96 17 0.0 0.0 0 5.12 0.00 - - - - - - - 12.8
10/14/22 91.7 1444 39.7 0720 0.00 0.00 2.75 0.119 385 9.6 1107 E | 101 38.4 95 7 0.0 0.0 0 2.63 0.00 - - - - - - - 12.8
10/13/22 90.2 1453 40.2 0720 0.00 0.00 2.75 0.124 385 12.0 1342 ENE | 75 39.6 94 8 0.0 0.0 10 3.21 0.00 - - - - - - - 12.8
10/12/22 88.9 1540 39.5 0723 0.00 0.00 2.75 0.132 383 12.0 1327 WSW | 257 40.3 95 12 0.0 0.0 20 4.24 0.00 - - - - - - - 12.8
10/11/22 88.0 1552 41.1 0648 0.00 0.00 2.75 0.128 383 11.9 1437 SE | 126 40.3 93 12 0.0 0.0 30 3.65 0.00 - - - - - - - 12.8
10/10/22 88.6 1533 39.3 0713 0.00 0.00 2.75 0.125 393 11.4 1551 W | 272 35.9 91 8 0.0 0.0 40 2.89 0.00 - - - - - - - 12.8
10/9/22 89.8 1301 40.6 0718 0.00 0.00 2.75 0.129 376 10.6 1410 NW | 312 39.0 95 11 0.0 0.0 50 2.29 0.00 - - - - - - - 12.8
10/8/22 91.3 1419 40.2 0718 0.00 0.00 2.75 0.132 396 11.8 1552 NW | 320 41.4 96 9 0.0 0.0 60 2.63 0.00 - - - - - - - 12.8
10/7/22 88.5 1539 41.3 0713 0.00 0.00 2.75 0.125 397 7.2 1551 WNW | 302 44.6 97 16 0.0 0.0 70 3.61 0.00 - - - - - - - 12.8
10/6/22 87.4 1420 42.6 0714 0.00 0.00 2.75 0.127 393 13.8 1357 ESE | 103 46.4 98 18 0.0 0.0 80 4.25 0.00 - - - - - - - 12.8
10/5/22 88.1 1446 40.7 0616 0.00 0.00 2.75 0.130 408 9.7 1240 ESE | 121 46.0 97 19 0.0 0.0 90 4.38 0.00 - - - - - - - 12.8
10/4/22 86.4 1431 40.2 0555 0.00 0.00 2.75 0.130 418 9.1 1620 NW | 322 45.7 98 21 0.0 0.0 100 8.85 0.00 - - - - - - - 12.8
10/3/22 83.4 1329 37.8 0651 0.00 0.00 2.75 0.134 430 11.0 1548 NW | 310 44.9 98 25 0.0 0.0 90 8.22 0.00 - - - - - - - 12.8
10/2/22 78.3 1543 39.9 0704 0.00 0.00 2.75 0.145 440 14.2 1513 ESE | 105 43.7 98 23 0.0 0.0 70 8.03 0.00 - - - - - - - 12.9
10/1/22 85.9 1507 41.3 0656 0.00 0.00 2.75 0.138 438 12.7 1241 E | 85 43.1 96 17 0.0 0.0 50 6.25 0.00 - - - - - - - 12.9
9/30/22 86.5 1632 40.8 0635 0.00 2.74 2.75 0.133 446 7.3 1442 SSE | 159 42.9 96 14 0.0 0.0 30 5.62 0.00 - - - - - - - 12.8
9/29/22 82.1 1628 45.4 0638 0.00 2.74 2.75 0.131 446 8.7 0153 W | 261 47.9 97 16 0.0 0.0 40 7.81 0.00 - - - - - - - 12.9
9/28/22 77.4 1512 44.5 0727 0.00 2.74 2.75 0.154 446 15.7 1344 WNW | 283 43.2 85 14 0.0 0.0 20 8.59 0.00 - - - - - - - 12.9
9/27/22 85.8 1522 36.1 0724 0.00 2.74 2.75 0.150 462 11.7 1953 W | 275 42.1 98 15 0.0 0.0 0 4.95 0.00 - - - - - - - 12.8
9/26/22 89.0 1556 44.6 0059 0.00 2.74 2.75 0.162 459 17.0 1246 ESE | 106 47.6 98 22 0.0 0.0 0 2.89 0.00 - - - - - - - 12.9
9/25/22 88.8 1452 39.8 0617 0.00 2.74 2.75 0.152 467 9.4 1049 WNW | 283 43.3 98 14 0.0 0.0 0 3.44 0.00 - - - - - - - 12.9
9/24/22 88.3 1636 41.5 0644 0.00 2.74 2.75 0.154 484 11.9 1521 ESE | 122 41.4 98 9 0.0 0.0 10 3.44 0.00 - - - - - - - 12.9
9/23/22 85.8 1633 40.8 0704 0.00 2.74 2.75 0.145 481 9.1 1248 NNW | 344 45.2 98 15 0.0 0.0 20 7.98 0.00 - - - - - - - 12.9
9/22/22 78.0 1644 39.4 0604 0.00 2.74 2.75 0.133 484 8.5 1432 ENE | 75 45.5 99 25 0.0 0.0 0 5.48 0.00 - - - - - - - 12.9
9/21/22 69.0 1545 43.9 0059 0.05 2.74 2.75 0.068 238 11.3 1658 W | 266 49.1 97 43 0.0 0.0 10 0.00 0.00 - 0.01 1449 0.02 0457 0.02 1533 13.0
9/20/22 65.8 1427 41.6 0524 0.00 2.69 2.70 0.083 302 12.5 1405 E | 90 47.3 99 45 0.0 0.0 20 0.00 0.00 - - - - - - - 12.9
9/19/22 66.1 1323 47.3 0558 0.67 2.69 2.70 0.079 298 13.2 1555 E | 94 51.0 98 54 0.0 0.0 30 0.00 0.00 2.69 0.04 1943 0.27 1955 0.44 2031 12.9
9/18/22 56.4 1628 49.4 0206 2.02 2.02 2.03 0.023 83 21.7 1225 ESE | 106 51.0 97 74 0.0 0.0 40 0.00 0.00 2.02 0.04 1857 0.31 1901 0.38 1921 13.0
9/17/22 70.9 1318 41.2 0519 0.00 0.00 0.01 0.137 411 17.9 1501 W | 259 42.9 94 30 0.0 0.0 50 0.87 0.00 - - - - - - - 12.9
9/16/22 79.2 1347 40.3 0658 0.00 0.00 0.01 0.158 491 16.2 1432 NW | 321 44.6 94 27 0.0 0.0 60 8.50 0.00 - - - - - - - 13.0
9/15/22 76.5 1600 40.5 0656 0.00 0.00 0.01 0.146 493 10.9 1827 W | 279 43.9 92 28 0.0 0.0 40 6.07 0.00 - - - - - - - 13.0
9/14/22 73.7 1439 50.4 0210 0.00 0.00 0.01 0.153 493 15.3 1418 WNW | 295 43.7 75 31 0.0 0.0 20 3.36 0.00 - - - - - - - 13.0
9/13/22 76.9 1525 53.9 0059 0.00 0.00 0.01 0.183 517 16.5 1433 NW | 306 45.0 68 30 0.0 0.0 30 6.28 0.00 - - - - - - - 12.9
9/12/22 88.9 1351 58.8 0641 0.00 0.00 0.01 0.144 361 13.2 1520 NW | 306 41.4 60 16 0.0 0.0 10 4.79 0.00 - - - - - - - 12.9
9/11/22 85.7 1540 58.0 0522 0.00 0.00 0.01 0.121 276 12.0 1645 WNW | 283 35.1 65 8 0.0 0.0 20 13.14 0.00 - - - - - - - 12.9
9/10/22 89.5 1410 51.6 0526 0.00 0.00 0.01 0.183 450 15.0 1306 ESE | 121 40.6 73 14 0.0 0.0 0 3.74 0.00 - - - - - - - 12.8
9/9/22 102.5 1422 52.5 0654 0.00 0.00 0.01 0.183 461 16.9 1400 ESE | 121 42.5 79 9 0.0 0.0 0 1.32 6.71 - - - - - - - 12.8
9/8/22 101.6 1511 54.2 0655 0.00 0.00 0.01 0.206 519 13.5 1512 NW | 315 43.4 75 10 0.0 0.0 0 2.45 7.74 - - - - - - - 12.8
9/7/22 103.2 1308 59.9 0355 0.00 0.00 0.01 0.199 482 14.7 1436 W | 265 43.7 65 10 0.0 0.0 0 4.05 6.63 - - - - - - - 12.8
9/6/22 110.5 1453 56.2 0613 0.00 0.00 0.01 0.211 527 19.9 1526 S | 171 42.4 71 5 0.0 0.0 0 1.26 9.06 - - - - - - - 12.8
9/5/22 106.8 1446 52.7 0548 0.00 0.00 0.01 0.196 529 10.7 1752 W | 278 43.1 78 8 0.0 0.0 0 1.76 7.82 - - - - - - - 12.8
9/4/22 99.2 1612 45.3 0629 0.00 0.00 0.01 0.190 546 7.9 1305 NW | 318 42.6 90 9 0.0 0.0 0 4.11 4.27 - - - - - - - 12.8
9/3/22 93.1 1436 51.7 0058 0.00 0.00 0.01 0.214 559 13.2 1650 NNW | 331 41.8 78 13 0.0 0.0 0 3.78 0.00 - - - - - - - 12.8
9/2/22 97.9 1443 40.4 0538 0.00 0.00 0.01 0.210 573 12.9 1540 WSW | 250 33.4 88 3 0.0 0.0 0 3.91 3.57 - - - - - - - 12.8
9/1/22 100.3 1544 41.2 0629 0.00 0.00 0.01 0.210 575 15.4 1418 ESE | 120 36.5 88 6 0.0 0.0 0 2.72 5.52 - - - - - - - 12.8
8/31/22 96.3 1510 38.4 0645 0.00 0.01 0.01 0.207 589 12.3 1222 ESE | 115 32.5 91 4 0.0 0.0 0 2.08 1.20 - - - - - - - 12.8
8/30/22 93.7 1413 45.5 0538 0.00 0.01 0.01 0.217 569 18.8 1522 ESE | 104 43.6 92 14 0.0 0.0 0 1.90 0.00 - - - - - - - 12.8
8/29/22 94.3 1545 47.7 0546 0.00 0.01 0.01 0.188 502 21.2 1553 ESE | 102 44.7 92 14 0.0 0.0 0 2.35 0.00 - - - - - - - 12.8
8/28/22 91.4 1636 47.2 0643 0.00 0.01 0.01 0.217 579 15.4 1609 E | 89 43.4 94 11 0.0 0.0 0 3.09 0.00 - - - - - - - 12.8
8/27/22 92.8 1357 47.8 0521 0.00 0.01 0.01 0.197 570 12.1 1605 W | 270 46.9 87 19 0.0 0.0 10 2.79 0.00 - - - - - - - 12.8
8/26/22 94.5 1551 47.2 0431 0.00 0.01 0.01 0.218 594 13.5 1237 ESE | 105 41.4 94 7 0.0 0.0 20 3.04 0.00 - - - - - - - 12.8
8/25/22 93.7 1550 47.4 0640 0.00 0.01 0.01 0.232 594 18.5 1338 SSE | 149 45.4 94 10 0.0 0.0 30 1.80 0.00 - - - - - - - 12.8
8/24/22 97.9 1443 48.6 0539 0.00 0.01 0.01 0.221 585 14.8 1232 ESE | 120 45.9 88 12 0.0 0.0 40 1.78 3.09 - - - - - - - 12.8
8/23/22 95.4 1416 50.2 0637 0.00 0.01 0.01 0.215 585 14.4 1647 NNW | 338 48.4 93 17 0.0 0.0 50 6.95 0.04 - - - - - - - 12.8
8/22/22 89.4 1530 68.1 0051 0.00 0.01 0.01 0.259 597 18.2 1156 NNW | 344 47.4 63 19 0.0 0.0 30 16.54 0.00 - - - - - - - 12.8
8/21/22 97.0 1351 51.0 0628 0.00 0.01 0.01 0.241 590 15.4 2300 W | 263 45.8 80 16 0.0 0.0 10 6.34 0.80 - - - - - - - 12.8
8/20/22 100.3 1348 50.5 0635 0.00 0.01 0.01 0.220 592 17.5 1412 NW | 308 43.2 85 10 0.0 0.0 0 2.36 6.15 - - - - - - - 12.8
8/19/22 97.4 1413 46.4 0626 0.00 0.01 0.01 0.239 617 14.0 1635 W | 278 35.0 67 3 0.0 0.0 0 4.59 3.44 - - - - - - - 12.8
8/18/22 100.7 1330 52.4 0423 0.00 0.01 0.01 0.237 600 15.1 1959 W | 264 40.5 80 8 0.0 0.0 0 3.86 5.54 - - - - - - - 12.8
8/17/22 97.3 1528 52.3 0559 0.00 0.01 0.01 0.139 345 15.2 1233 ESE | 102 46.8 78 13 0.0 0.0 0 2.28 1.26 - - - - - - - 12.8
8/16/22 102.0 1602 47.9 0625 0.00 0.01 0.01 0.217 607 13.5 1557 ENE | 74 40.0 88 4 0.0 0.0 0 2.62 6.12 - - - - - - - 12.8
8/15/22 97.8 1538 46.6 0620 0.00 0.01 0.01 0.220 592 13.5 1831 W | 266 40.8 87 6 0.0 0.0 0 3.35 3.42 - - - - - - - 12.8
8/14/22 94.2 1523 44.8 0608 0.00 0.01 0.01 0.227 614 14.7 1745 W | 268 41.3 89 11 0.0 0.0 0 4.51 0.00 - - - - - - - 12.8
8/13/22 92.4 1425 41.4 0618 0.00 0.01 0.01 0.227 633 15.0 1905 WNW | 282 39.0 92 12 0.0 0.0 0 2.95 0.00 - - - - - - - 12.8
8/12/22 87.7 1443 38.7 0627 0.00 0.01 0.01 0.228 633 14.1 1618 NW | 308 41.1 91 17 0.0 0.0 0 4.06 0.00 - - - - - - - 12.8
8/11/22 88.5 1453 42.8 0613 0.00 0.01 0.01 0.219 629 12.6 2032 WNW | 296 45.3 95 16 0.0 0.0 10 4.07 0.00 - - - - - - - 12.9
8/10/22 85.3 1640 52.9 0532 0.00 0.01 0.01 0.216 638 13.4 0216 WSW | 253 46.7 74 22 0.0 0.0 20 10.31 0.00 - - - - - - - 12.9
8/9/22 87.6 1444 43.0 0634 0.00 0.01 0.01 0.224 642 16.8 1359 SE | 125 43.4 92 12 0.0 0.0 0 4.00 0.00 - - - - - - - 12.9
8/8/22 89.0 1347 41.9 0620 0.00 0.01 0.01 0.206 644 14.7 1604 NW | 316 48.1 92 18 0.0 0.0 0 4.26 0.00 - - - - - - - 12.8
8/7/22 90.4 1525 41.7 0623 0.00 0.01 0.01 0.242 648 16.8 1540 E | 89 43.6 93 12 0.0 0.0 0 4.05 0.00 - - - - - - - 12.9
8/6/22 88.6 1513 45.5 0619 0.00 0.01 0.01 0.229 648 15.4 1412 ESE | 108 46.8 98 14 0.0 0.0 0 4.56 0.00 - - - - - - - 12.9
8/5/22 87.4 1507 53.6 0608 0.00 0.01 0.01 0.234 631 18.6 1609 ESE | 103 47.1 91 21 0.0 0.0 0 5.56 0.00 - - - - - - - 12.9
8/4/22 97.9 1456 56.6 0548 0.00 0.01 0.01 0.243 621 14.8 1304 ENE | 67 47.2 85 13 0.0 0.0 10 2.78 2.66 - - - - - - - 12.9
8/3/22 96.7 1415 59.3 0415 0.00 0.01 0.01 0.215 563 13.9 1252 ESE | 113 53.0 77 20 0.0 0.0 20 6.22 0.88 - - - - - - - 12.9
8/2/22 94.5 1527 55.0 0600 0.00 0.01 0.01 0.219 592 11.8 1635 W | 263 54.2 97 24 0.0 0.0 10 5.73 0.00 - - - - - - - 13.0
8/1/22 77.3 1922 58.3 0059 0.01 0.01 0.01 0.054 162 7.3 0727 ESE | 120 61.3 95 53 0.0 0.0 20 12.12 0.00 - 0.01 1206 0.01 1220 0.01 1305 12.9
7/31/22 95.0 1613 61.9 0134 0.00 0.00 0.00 0.233 584 16.4 1155 ESE | 110 56.1 86 21 0.0 0.0 0 4.47 0.00 - - - - - - - 12.9
7/30/22 99.3 1608 59.8 0323 0.00 0.00 0.00 0.196 484 14.0 1124 SE | 126 56.0 87 21 0.0 0.0 0 2.49 3.46 - - - - - - - 12.8
7/29/22 103.3 1455 58.8 0447 0.00 0.00 0.00 0.247 626 13.2 1539 WNW | 302 54.2 87 14 0.0 0.0 0 1.64 6.62 - - - - - - - 12.8
7/28/22 101.1 1400 55.3 0557 0.00 0.00 0.00 0.251 626 14.3 1632 NW | 318 49.2 74 16 0.0 0.0 0 5.58 6.04 - - - - - - - 12.9
7/27/22 96.2 1416 51.4 0603 0.00 0.00 0.00 0.249 643 14.2 1522 WNW | 303 46.0 90 11 0.0 0.0 10 6.43 0.59 - - - - - - - 12.9
7/26/22 97.6 1525 53.9 0421 0.00 0.00 0.00 0.243 620 13.7 1255 E | 98 44.5 81 10 0.0 0.0 0 5.18 2.32 - - - - - - - 12.9
7/25/22 98.8 1427 50.2 0627 0.00 0.00 0.00 0.248 645 15.3 1431 SE | 127 41.2 81 6 0.0 0.0 0 1.65 3.13 - - - - - - - 12.9
7/24/22 98.7 1450 47.2 0609 0.00 0.00 0.00 0.255 683 14.6 1259 ESE | 123 39.8 86 7 0.0 0.0 0 1.62 3.27 - - - - - - - 12.9
7/23/22 97.4 1500 43.3 0529 0.00 0.00 0.00 0.258 682 15.2 1109 ESE | 111 36.4 86 6 0.0 0.0 0 4.10 1.47 - - - - - - - 12.9
7/22/22 93.1 1630 56.5 0613 0.00 0.00 0.00 0.278 691 15.3 1535 WNW | 300 29.1 46 5 0.0 0.0 0 5.04 0.00 - - - - - - - 12.9
7/21/22 95.9 1510 46.0 0609 0.00 0.00 0.00 0.277 688 17.6 1646 WNW | 303 31.8 78 6 0.0 0.0 0 5.04 0.57 - - - - - - - 12.9
7/20/22 97.5 1340 42.0 0554 0.00 0.00 0.00 0.247 680 13.2 1605 WNW | 295 36.1 78 9 0.0 0.0 0 2.21 2.33 - - - - - - - 12.9
7/19/22 95.5 1435 43.9 0606 0.00 0.00 0.00 0.246 681 13.1 1628 W | 272 34.6 78 5 0.0 0.0 0 2.23 0.21 - - - - - - - 12.9
7/18/22 95.3 1335 48.7 0618 0.00 0.00 0.00 0.255 670 14.9 1551 NW | 319 39.8 80 9 0.0 0.0 0 3.21 0.12 - - - - - - - 12.9
7/17/22 96.2 1551 44.6 0557 0.00 0.00 0.00 0.251 683 13.4 1949 W | 277 41.9 90 7 0.0 0.0 0 2.28 1.43 - - - - - - - 12.9
7/16/22 96.9 1601 43.8 0615 0.00 0.00 0.00 0.252 687 11.7 1635 W | 276 42.7 93 7 0.0 0.0 0 2.88 3.68 - - - - - - - 12.9
7/15/22 94.8 1412 43.0 0555 0.00 0.00 0.00 0.250 688 12.1 1520 NW | 306 42.2 89 9 0.0 0.0 10 3.12 0.00 - - - - - - - 12.8
7/14/22 92.5 1310 50.3 0615 0.00 0.00 0.00 0.252 676 14.7 1154 ESE | 118 48.0 95 21 0.0 0.0 20 3.58 0.00 - - - - - - - 12.9
7/13/22 91.8 1510 44.8 0604 0.00 0.00 0.00 0.241 684 13.0 1759 NW | 323 49.8 95 18 0.0 0.0 30 3.60 0.00 - - - - - - - 12.9
7/12/22 95.7 1345 47.7 0620 0.00 0.00 0.00 0.260 690 17.6 1448 WNW | 298 42.2 92 6 0.0 0.0 40 2.31 0.15 - - - - - - - 12.9
7/11/22 100.0 1527 52.1 0548 0.00 0.00 0.00 0.250 678 12.4 1158 NW | 315 47.9 94 11 0.0 0.0 50 1.47 5.44 - - - - - - - 12.9
7/10/22 96.1 1726 47.5 0558 0.00 0.00 0.00 0.244 692 12.0 1837 WSW | 253 46.7 94 12 0.0 0.0 60 2.96 0.69 - - - - - - - 12.9
7/9/22 86.3 1557 54.0 0620 0.00 0.00 0.00 0.251 693 15.3 1140 WNW | 288 47.0 76 22 0.0 0.0 70 7.85 0.00 - - - - - - - 13.0
7/8/22 88.4 1457 49.9 0550 0.00 0.00 0.00 0.245 692 13.8 1801 W | 273 47.7 92 19 0.0 0.0 50 4.51 0.00 - - - - - - - 13.0
7/7/22 82.4 1518 45.8 0538 0.00 0.00 0.00 0.231 693 14.6 1802 WNW | 303 48.2 99 27 0.0 0.0 60 10.00 0.00 - - - - - - - 13.0
7/6/22 77.3 1514 50.8 0604 0.00 0.00 0.00 0.212 676 15.5 1824 NW | 313 50.7 96 38 0.0 0.0 40 7.69 0.00 - - - - - - - 13.0
7/5/22 75.5 1636 54.6 0006 0.00 0.00 0.00 0.129 409 14.1 1841 WNW | 282 53.7 93 42 0.0 0.0 20 6.43 0.00 - - - - - - - 13.0
7/4/22 73.6 1545 52.3 0528 0.00 0.00 0.00 0.106 320 12.2 0200 WNW | 288 51.7 84 44 0.0 0.0 0 3.69 0.00 - - - - - - - 13.0
7/3/22 75.2 1535 49.0 0539 0.00 0.00 0.00 0.210 650 16.9 1419 WNW | 302 42.4 91 23 0.0 0.0 10 5.64 0.00 - - - - - - - 13.0
7/2/22 79.5 1418 41.7 0607 0.00 0.00 0.00 0.244 703 19.0 1247 WNW | 302 41.2 91 15 0.0 0.0 20 9.32 0.00 - - - - - - - 12.9
7/1/22 88.4 1417 42.6 0536 0.00 0.00 0.00 0.244 693 13.6 1246 ESE | 107 44.0 94 17 0.0 0.0 0 4.84 0.00 - - - - - - - 12.9
6/30/22 88.9 1454 45.8 0554 0.00 0.25 18.09 0.245 692 15.0 1354 E | 80 45.3 92 24 0.0 0.0 0 4.38 0.00 - - - - - - - 12.9
6/29/22 92.4 1446 41.4 0558 0.00 0.25 18.09 0.257 717 13.4 1434 ESE | 114 39.6 89 10 0.0 0.0 10 4.18 0.00 - - - - - - - 12.9
6/28/22 88.5 1513 46.4 0544 0.00 0.25 18.09 0.292 727 14.7 1600 NW | 326 28.3 65 5 0.0 0.0 20 5.11 0.00 - - - - - - - 12.9
6/27/22 93.4 1432 41.7 0545 0.00 0.25 18.09 0.293 726 15.8 1332 WNW | 301 33.2 87 7 0.0 0.0 30 4.96 0.00 - - - - - - - 12.8
6/26/22 96.7 1529 44.5 0537 0.00 0.25 18.09 0.260 723 12.8 1253 SE | 134 39.2 93 6 0.0 0.0 40 1.97 2.49 - - - - - - - 12.9
6/25/22 95.1 1551 45.8 0529 0.00 0.25 18.09 0.272 718 18.1 1332 SE | 124 41.0 92 9 0.0 0.0 50 2.44 0.00 - - - - - - - 12.9
6/24/22 95.8 1446 46.4 0555 0.00 0.25 18.09 0.252 704 12.8 1642 WNW | 296 45.9 92 14 0.0 0.0 60 2.37 0.13 - - - - - - - 12.9
6/23/22 91.7 1423 46.2 0557 0.00 0.25 18.09 0.251 706 18.2 1322 ESE | 123 41.1 87 13 0.0 0.0 70 3.19 0.00 - - - - - - - 12.9
6/22/22 98.5 1410 46.9 0556 0.00 0.25 18.09 0.260 707 16.4 1559 ESE | 120 39.2 85 6 0.0 0.0 80 2.77 3.30 - - - - - - - 12.9
6/21/22 94.6 1728 43.0 0549 0.00 0.25 18.09 0.254 720 17.8 1038 E | 95 35.4 90 6 0.0 0.0 90 2.94 0.00 - - - - - - - 12.9
6/20/22 86.1 1640 41.7 0521 0.00 0.25 18.09 0.229 701 12.8 1841 ENE | 59 38.2 92 10 0.0 0.0 100 7.60 0.00 - - - - - - - 12.9
6/19/22 78.3 1637 36.7 0603 0.00 0.25 18.09 0.229 719 16.7 1824 W | 276 39.0 95 17 0.0 0.0 80 8.00 0.00 - - - - - - - 12.9
6/18/22 69.4 1616 37.5 0609 0.00 0.25 18.09 0.197 678 14.9 1915 WNW | 291 37.5 92 24 0.0 0.0 60 0.00 0.00 - - - - - - - 12.9
6/17/22 64.9 1457 41.9 0525 0.00 0.25 18.09 0.191 687 16.9 1735 WNW | 288 36.8 83 28 0.0 0.0 70 0.00 0.00 - - - - - - - 12.9
6/16/22 74.9 1454 45.8 0052 0.00 0.25 18.09 0.235 693 19.0 2339 W | 268 38.5 82 20 0.0 0.0 80 4.98 0.00 - - - - - - - 12.9
6/15/22 86.9 1414 41.3 0540 0.00 0.25 18.09 0.267 715 17.6 2250 WNW | 285 36.7 94 9 0.0 0.0 90 5.12 0.00 - - - - - - - 12.9
6/14/22 82.3 1458 35.9 0558 0.00 0.25 18.09 0.229 723 13.0 1805 NW | 312 36.3 96 8 0.0 0.0 100 9.92 0.00 - - - - - - - 12.9
6/13/22 74.3 1543 43.9 0058 0.00 0.25 18.09 0.219 731 18.9 1616 W | 275 38.5 91 18 0.0 0.0 80 4.40 0.00 - - - - - - - 12.9
6/12/22 68.3 1202 49.4 0059 0.00 0.25 18.09 0.166 560 22.5 2036 W | 277 50.4 84 44 0.0 0.0 90 0.00 0.00 - - - - - - - 13.0
6/11/22 83.8 1540 59.3 0542 0.00 0.25 18.09 0.249 669 19.1 1331 NW | 305 53.2 75 30 0.0 0.0 100 14.59 0.00 - - - - - - - 13.0
6/10/22 89.6 1532 62.5 0608 0.00 0.25 18.09 0.282 689 15.8 1934 W | 260 49.4 72 22 0.0 0.0 100 10.22 0.00 - - - - - - - 13.0
6/9/22 86.3 1451 58.0 0637 0.00 0.25 18.09 0.267 631 18.5 1518 NW | 304 41.0 54 15 0.0 0.0 100 9.49 0.00 - - - - - - - 13.0
6/8/22 82.1 1613 62.4 0335 0.00 0.25 18.09 0.252 651 16.4 1851 W | 268 44.4 58 14 0.0 0.0 100 10.52 0.00 - - - - - - - 13.0
6/7/22 83.5 1350 41.7 0553 0.00 0.25 18.09 0.238 652 16.7 1834 W | 261 39.9 97 12 0.0 0.0 100 11.16 0.00 - - - - - - - 12.9
6/6/22 79.1 1523 48.5 0608 0.00 0.25 18.09 0.229 725 13.2 1409 NW | 315 43.7 92 11 0.0 0.0 100 8.51 0.00 - - - - - - - 13.0
6/5/22 70.4 1424 53.0 0041 0.18 0.25 18.09 0.143 483 16.5 1530 NW | 321 54.0 99 46 0.0 0.0 80 0.06 0.00 0.25 0.01 1344 0.04 0711 0.07 0712 13.0
6/4/22 66.7 1542 50.1 0543 0.07 0.07 17.91 0.095 262 16.7 1511 ESE | 123 42.3 98 26 0.0 0.0 90 0.00 0.00 - 0.01 0051 0.01 0101 0.03 2100 13.0
6/3/22 73.6 1402 55.0 0600 0.00 0.00 17.84 0.181 516 18.7 1129 NW | 312 45.0 73 20 0.0 0.0 100 6.58 0.00 - - - - - - - 12.9
6/2/22 81.3 1504 59.2 2317 0.00 0.00 17.84 0.277 685 18.1 1637 WNW | 300 36.8 58 18 0.0 0.0 100 11.21 0.00 - - - - - - - 13.0
6/1/22 84.1 1418 39.5 0547 0.00 0.00 17.84 0.246 649 17.9 2114 W | 263 36.4 94 15 0.0 0.0 100 11.80 0.00 - - - - - - - 12.9
5/31/22 80.4 1604 33.8 0527 0.00 0.09 17.84 0.226 716 16.0 1124 ENE | 61 31.5 92 10 0.0 0.0 90 9.03 0.00 - - - - - - - 12.9
5/30/22 71.7 1625 38.7 0526 0.00 0.09 17.84 0.224 715 15.8 1835 WNW | 299 33.4 77 20 0.0 0.0 70 2.66 0.00 - - - - - - - 13.0
5/29/22 68.1 1532 43.2 0600 0.00 0.09 17.84 0.210 705 22.0 0144 W | 270 38.1 84 29 0.0 0.0 80 0.00 0.00 - - - - - - - 13.0
5/28/22 61.6 1110 48.2 0056 0.00 0.09 17.84 0.116 360 20.9 2318 W | 267 44.5 85 43 0.0 0.0 90 0.00 0.00 - - - - - - - 13.0
5/27/22 74.2 1238 48.3 0554 0.00 0.09 17.84 0.198 577 18.6 1407 NW | 315 45.8 91 26 0.0 0.0 100 6.68 0.00 - - - - - - - 13.0
5/26/22 79.4 1321 44.0 0602 0.00 0.09 17.84 0.182 480 16.0 1128 NW | 306 43.6 89 21 0.0 0.0 100 11.88 0.00 - - - - - - - 12.9
5/25/22 93.1 1515 47.0 0529 0.00 0.09 17.84 0.240 678 11.8 1526 NW | 316 41.4 92 11 0.0 0.0 80 2.66 0.00 - - - - - - - 12.9
5/24/22 90.5 1724 43.3 0543 0.00 0.09 17.84 0.230 681 10.0 1950 WSW | 254 39.0 91 7 0.0 0.0 90 3.90 0.00 - - - - - - - 12.9
5/23/22 83.0 1545 52.2 0625 0.00 0.09 17.84 0.251 679 17.3 0144 W | 263 38.3 74 15 0.0 0.0 100 11.00 0.00 - - - - - - - 13.0
5/22/22 81.0 1543 42.5 0618 0.00 0.09 17.84 0.247 676 17.3 1507 W | 260 33.7 80 14 0.0 0.0 100 9.97 0.00 - - - - - - - 13.0
5/21/22 79.6 1602 33.9 0547 0.00 0.09 17.84 0.227 700 15.6 1802 WNW | 283 28.5 89 8 0.0 0.0 100 9.71 0.00 - - - - - - - 12.9
5/20/22 72.5 1710 31.8 0602 0.00 0.09 17.84 0.209 721 14.9 0940 SE | 127 21.4 90 8 0.0 0.0 80 4.01 0.00 - - - - - - - 12.9
5/19/22 78.1 1451 49.8 0059 0.00 0.09 17.84 0.281 667 24.1 2150 W | 264 34.1 40 13 0.0 0.0 90 8.70 0.00 - - - - - - - 13.0
5/18/22 85.6 1532 45.2 0520 0.00 0.09 17.84 0.275 665 19.1 1710 WSW | 255 40.3 77 16 0.0 0.0 70 11.95 0.00 - - - - - - - 13.0
5/17/22 81.0 1540 39.9 0620 0.00 0.09 17.84 0.230 680 16.7 1613 WNW | 294 38.0 94 14 0.0 0.0 50 9.74 0.00 - - - - - - - 12.9
5/16/22 74.8 1539 50.8 0414 0.00 0.09 17.84 0.234 679 21.6 0334 W | 270 40.7 71 24 0.0 0.0 40 5.98 0.00 - - - - - - - 13.0
5/15/22 76.5 1547 44.2 0622 0.00 0.09 17.84 0.220 621 17.2 1237 NW | 318 42.9 95 26 0.0 0.0 20 8.09 0.00 - - - - - - - 13.0
5/14/22 82.2 1555 42.6 0527 0.00 0.09 17.84 0.225 669 13.2 0711 WSW | 254 44.0 99 12 0.0 0.0 0 9.86 0.00 - - - - - - - 13.0
5/13/22 70.7 1448 40.3 0545 0.00 0.09 17.84 0.195 649 18.0 1715 W | 260 45.2 97 40 0.0 0.0 0 0.73 0.00 - - - - - - - 12.9
5/12/22 62.6 1610 35.8 0151 0.00 0.09 17.84 0.160 592 15.8 0800 W | 265 34.7 88 31 0.0 0.0 0 0.00 0.00 - - - - - - - 12.9
5/11/22 62.6 1530 28.8 0426 0.00 0.09 17.84 0.178 680 17.2 1551 NW | 311 31.9 98 24 4.7 0.0 0 0.00 0.00 - - - - - - - 12.8
5/10/22 54.6 1346 33.6 0052 0.02 0.09 17.84 0.097 410 15.4 1400 ESE | 107 31.8 96 25 0.0 0.0 0 0.00 0.00 - 0.01 1731 0.01 1745 0.02 1749 12.8
5/9/22 52.5 1321 36.3 0032 0.00 0.07 17.82 0.121 554 20.6 1655 WSW | 253 32.0 89 25 0.0 0.0 0 0.00 0.00 - - - - - - - 12.8
5/8/22 49.2 1507 32.1 0615 0.07 0.07 17.82 0.107 541 30.1 1716 NW | 310 33.4 92 46 0.0 0.0 0 0.00 0.00 - 0.01 2016 0.05 1735 0.06 1820 12.8
5/7/22 62.6 1514 40.6 0058 0.00 0.00 17.75 0.170 633 26.2 2029 WSW | 253 39.0 91 35 0.0 0.0 0 0.00 0.00 - - - - - - - 12.9
5/6/22 66.4 1320 45.9 0022 0.00 0.00 17.75 0.137 482 22.0 1428 W | 264 47.2 94 47 0.0 0.0 10 0.00 0.00 - - - - - - - 12.9
5/5/22 66.5 1257 46.2 0248 0.00 0.00 17.75 0.125 334 17.7 0602 W | 267 41.0 91 20 0.0 0.0 20 0.00 0.00 - - - - - - - 12.9
5/4/22 82.2 1447 38.5 0617 0.00 0.00 17.75 0.215 660 15.3 1553 W | 276 35.9 92 15 0.0 0.0 0 11.02 0.00 - - - - - - - 12.8
5/3/22 76.2 1704 31.6 0612 0.00 0.00 17.75 0.185 665 11.4 1338 ENE | 64 31.6 96 12 0.2 0.0 0 5.73 0.00 - - - - - - - 12.8
5/2/22 60.2 1340 40.6 0059 0.00 0.00 17.75 0.161 556 24.6 0827 W | 276 33.3 83 28 0.0 0.0 0 0.00 0.00 - - - - - - - 12.9
5/1/22 76.1 1741 32.8 0612 0.00 0.00 17.75 0.200 662 15.1 0020 W | 261 30.5 96 7 0.0 0.0 0 5.41 0.00 - - - - - - - 12.8
4/30/22 65.7 1401 46.8 2324 0.00 1.40 17.75 0.179 630 21.0 1321 W | 279 42.6 78 44 0.0 0.0 0 0.00 0.00 - - - - - - - 12.9
4/29/22 69.8 1525 32.3 0559 0.00 1.40 17.75 0.192 621 17.8 2337 W | 272 32.0 93 12 0.0 0.0 0 0.00 0.00 - - - - - - - 12.8
4/28/22 61.6 1530 38.1 0538 0.00 1.40 17.75 0.168 638 22.7 0752 W | 260 33.9 85 30 0.0 0.0 0 0.00 0.00 - - - - - - - 12.8
4/27/22 66.8 1448 41.4 0101 0.00 1.40 17.75 0.188 609 17.9 0153 W | 265 32.7 80 16 0.0 0.0 0 0.00 0.00 - - - - - - - 12.9
4/26/22 67.7 1602 46.6 0701 0.00 1.40 17.75 0.186 630 19.2 0806 W | 275 37.9 76 26 0.0 0.0 0 0.00 0.00 - - - - - - - 12.9
4/25/22 71.6 1510 39.7 0431 0.00 1.40 17.75 0.194 602 17.5 1440 NW | 306 37.7 91 26 0.0 0.0 0 2.65 0.00 - - - - - - - 12.9
4/24/22 73.2 1542 33.7 0644 0.00 1.40 17.75 0.185 614 12.5 1542 WNW | 291 35.1 96 15 0.0 0.0 0 5.29 0.00 - - - - - - - 12.8
4/23/22 68.3 1824 31.2 0635 0.00 1.40 17.75 0.168 621 15.1 1856 W | 276 34.7 97 16 0.8 0.0 0 0.00 0.00 - - - - - - - 12.8
4/22/22 59.1 1628 33.7 0653 0.00 1.40 17.75 0.116 481 13.5 1735 NNW | 335 37.3 99 37 0.0 0.0 0 0.00 0.00 - - - - - - - 12.8
4/21/22 54.5 1314 39.4 2335 0.30 1.40 17.75 0.106 463 20.6 0210 W | 266 37.7 96 43 0.0 0.0 0 0.00 0.00 0.48 0.01 2354 0.08 0239 0.16 0311 12.9
4/20/22 53.9 1243 33.5 0101 0.18 1.10 17.45 0.083 362 20.8 1253 ESE | 106 40.8 99 62 0.0 0.0 0 0.00 0.00 0.18 0.01 1942 0.06 1912 0.14 1949 12.8
4/19/22 55.4 1320 33.0 0049 0.00 0.92 17.27 0.093 369 14.8 1546 W | 265 37.5 97 46 0.0 0.0 0 0.00 0.00 - - - 0.01 0112 0.01 0157 12.9
4/18/22 58.3 1232 31.5 0111 0.17 0.92 17.27 0.084 322 20.7 1438 SW | 236 40.0 94 45 0.1 0.0 0 0.00 0.00 0.17 0.01 0058 0.04 2142 0.09 2218 12.8
4/17/22 65.3 1523 26.6 0649 0.00 0.75 17.10 0.161 625 16.7 1346 E | 98 26.8 98 10 6.3 0.8 0 0.00 0.00 - - - - - - - 12.7
4/16/22 60.3 1528 31.8 0059 0.54 0.75 17.10 0.130 522 18.3 0334 WSW | 254 39.9 98 26 0.0 0.0 0 0.00 0.00 0.54 0.01 1239 0.06 0641 0.16 0709 12.9
4/15/22 58.9 1315 29.4 0633 0.00 0.21 16.56 0.107 423 15.6 1607 WNW | 290 36.1 98 26 1.7 0.0 0 0.00 0.00 - - - - - - - 12.9
4/14/22 52.9 1350 39.6 0058 0.18 0.21 16.56 0.066 274 16.2 1127 W | 275 43.4 96 72 0.0 0.0 10 0.00 0.00 0.18 0.01 1645 0.03 1542 0.05 1627 12.9
4/13/22 49.7 1723 33.6 0334 0.00 0.03 16.38 0.081 371 16.1 1658 W | 269 34.1 89 45 0.0 0.0 20 0.00 0.00 - - - - - - - 12.9
4/12/22 51.0 1635 31.8 0005 0.00 0.03 16.38 0.114 521 20.0 1252 W | 278 26.4 88 30 0.1 0.0 30 0.00 0.00 -